createdAt,value
2022-12-04T00:01:24.307Z,12.40
2022-12-04T00:03:56.280Z,12.23
2022-12-04T00:06:24.651Z,12.52
2022-12-04T00:08:52.811Z,10.98
2022-12-04T00:11:22.355Z,9.35
2022-12-04T00:13:49.447Z,9.55
2022-12-04T00:16:23.117Z,9.13
2022-12-04T00:18:50.613Z,8.70
2022-12-04T00:21:18.808Z,9.43
2022-12-04T00:23:46.605Z,9.00
2022-12-04T00:26:16.197Z,9.32
2022-12-04T00:28:43.778Z,9.50
2022-12-04T00:31:14.073Z,9.75
2022-12-04T00:33:41.174Z,8.90
2022-12-04T00:36:11.398Z,10.38
2022-12-04T00:38:39.989Z,7.75
2022-12-04T00:41:18.556Z,8.15
2022-12-04T00:43:48.498Z,9.05
2022-12-04T00:46:16.390Z,7.85
2022-12-04T00:48:43.911Z,7.50
2022-12-04T00:51:37.272Z,6.97
2022-12-04T00:54:04.337Z,7.10
2022-12-04T00:56:31.380Z,8.07
2022-12-04T00:59:01.094Z,7.63
2022-12-04T01:01:29.341Z,8.13
2022-12-04T01:03:57.564Z,8.23
2022-12-04T01:06:30.132Z,8.00
2022-12-04T01:08:59.075Z,7.95
2022-12-04T01:11:27.585Z,8.10
2022-12-04T01:13:54.933Z,7.00
2022-12-04T01:16:28.175Z,6.70
2022-12-04T01:18:55.961Z,7.68
2022-12-04T01:21:23.487Z,7.72
2022-12-04T01:23:50.624Z,7.53
2022-12-04T01:26:17.610Z,7.60
2022-12-04T01:28:44.600Z,7.15
2022-12-04T01:31:15.260Z,7.65
2022-12-04T01:33:42.670Z,7.30
2022-12-04T01:36:13.262Z,7.47
2022-12-04T01:38:40.944Z,6.97
2022-12-04T01:41:10.243Z,6.53
2022-12-04T01:43:38.868Z,6.90
2022-12-04T01:46:07.572Z,6.35
2022-12-04T01:48:34.671Z,6.40
2022-12-04T01:51:18.586Z,6.30
2022-12-04T01:53:52.999Z,6.50
2022-12-04T01:56:23.805Z,6.07
2022-12-04T01:58:54.536Z,6.65
2022-12-04T02:01:21.623Z,6.63
2022-12-04T02:03:49.358Z,6.63
2022-12-04T02:06:16.343Z,5.82
2022-12-04T02:08:43.473Z,5.85
2022-12-04T02:11:27.845Z,6.90
2022-12-04T02:14:12.738Z,5.72
2022-12-04T02:16:56.239Z,6.78
2022-12-04T02:20:04.664Z,6.70
2022-12-04T02:22:46.656Z,6.68
2022-12-04T02:25:48.061Z,6.05
2022-12-04T02:28:30.738Z,6.68
